Granite City, Illinois
Current Conditions -  °F | °C
As of 12:53 PM on Sunday 21 Dec 2014 (Local Time) from KCPS Reporting Station
Overcast Overcast  
Wind Chill: 34°   Ceiling: 3600
Heat Index: 42°   Visibility: 10mi
Dew Point: 33°   Wind: 16mph
Humidity: 70%   Direction: 140°SE
Pressure: 30.11"   Gusts: NA
Location:  38.7°N, 90.15°W
Report Text: KCPS 211853Z 14014KT 10SM OVC036 06/01 A3011 RMK AO2 SLP198 T00560006
Loading
Personal Weather Stations






























Interactive Weather Map New forecast layout! Learn more

10-Day Weather Forecast

Advertisements
Track Severe Weather on mobile